createdAt,value
2022-10-25T00:02:08.854Z,97503.00
2022-10-25T00:04:35.308Z,97495.25
2022-10-25T00:07:01.706Z,97496.78
2022-10-25T00:09:28.029Z,97491.50
2022-10-25T00:11:54.386Z,97506.91
2022-10-25T00:14:20.795Z,97496.22
2022-10-25T00:16:47.304Z,97496.91
2022-10-25T00:19:14.257Z,97494.06
2022-10-25T00:21:40.762Z,97497.47
2022-10-25T00:24:07.412Z,97497.81
2022-10-25T00:26:34.952Z,97505.09
2022-10-25T00:29:01.877Z,97501.56
2022-10-25T00:31:28.278Z,97500.06
2022-10-25T00:33:54.665Z,97505.84
2022-10-25T00:36:22.809Z,97489.88
2022-10-25T00:38:49.174Z,97494.44
2022-10-25T00:41:17.208Z,97495.97
2022-10-25T00:43:47.234Z,97496.91
2022-10-25T00:46:28.456Z,97501.13
2022-10-25T00:49:15.660Z,97496.09
2022-10-25T00:51:45.701Z,97494.91
2022-10-25T00:54:14.992Z,97493.38
2022-10-25T00:56:43.024Z,97505.22
2022-10-25T00:59:12.440Z,97493.59
2022-10-25T01:01:38.923Z,97502.75
2022-10-25T01:04:07.086Z,97498.88
2022-10-25T01:06:37.028Z,97505.34
2022-10-25T01:09:03.840Z,97490.19
2022-10-25T01:11:30.314Z,97491.47
2022-10-25T01:13:57.591Z,97489.38
2022-10-25T01:16:42.674Z,97492.44
2022-10-25T01:19:24.409Z,97482.09
2022-10-25T01:21:56.477Z,97484.22
2022-10-25T01:24:28.739Z,97483.72
2022-10-25T01:27:10.990Z,97490.19
2022-10-25T01:30:00.321Z,97491.69
2022-10-25T01:32:46.317Z,97497.22
2022-10-25T01:35:24.981Z,97494.00
2022-10-25T01:38:10.357Z,97496.56
2022-10-25T01:40:57.011Z,97500.88
2022-10-25T01:43:26.364Z,97503.34
2022-10-25T01:45:56.790Z,97497.84
2022-10-25T01:48:26.458Z,97503.47
2022-10-25T01:50:53.026Z,97498.28
2022-10-25T01:53:19.365Z,97496.66
2022-10-25T01:55:57.185Z,97502.41
2022-10-25T01:58:43.297Z,97507.03
2022-10-25T02:01:26.463Z,97506.97
2022-10-25T02:03:55.062Z,97509.34
2022-10-25T02:06:38.683Z,97502.50
2022-10-25T02:09:20.223Z,97504.75
2022-10-25T02:11:48.306Z,97492.44
2022-10-25T02:14:37.323Z,97500.41
2022-10-25T02:17:19.310Z,97499.84
2022-10-25T02:19:51.296Z,97499.25
2022-10-25T02:22:19.398Z,97497.97
2022-10-25T02:24:46.974Z,97499.25
2022-10-25T02:27:14.017Z,97491.84
2022-10-25T02:29:41.486Z,97500.16
2022-10-25T02:32:08.384Z,97487.47
2022-10-25T02:34:34.738Z,97481.13
2022-10-25T02:37:01.117Z,97476.72
2022-10-25T02:39:31.247Z,97474.81
2022-10-25T02:41:58.191Z,97475.53
2022-10-25T02:44:24.536Z,97465.34
2022-10-25T02:46:50.902Z,97467.84
2022-10-25T02:49:17.293Z,97469.06
2022-10-25T02:51:43.696Z,97470.72
2022-10-25T02:54:10.069Z,97467.94
2022-10-25T02:56:37.556Z,97471.81
2022-10-25T02:59:04.190Z,97471.66
2022-10-25T03:01:30.868Z,97481.91
2022-10-25T03:03:57.379Z,97481.66
2022-10-25T03:06:23.790Z,97485.63
2022-10-25T03:08:50.269Z,97493.16
2022-10-25T03:11:17.128Z,97493.84
2022-10-25T03:13:43.566Z,97483.63
2022-10-25T03:16:10.017Z,97489.84
2022-10-25T03:18:36.451Z,97500.53
2022-10-25T03:21:03.938Z,97491.47
2022-10-25T03:23:30.422Z,97496.97
2022-10-25T03:25:57.937Z,97499.69
2022-10-25T03:28:24.340Z,97504.84
2022-10-25T03:30:50.865Z,97491.78
2022-10-25T03:33:17.473Z,97491.41
2022-10-25T03:35:43.984Z,97496.00
2022-10-25T03:38:10.893Z,97505.28
2022-10-25T03:40:37.377Z,97499.06
2022-10-25T03:43:03.815Z,97504.91
2022-10-25T03:45:30.248Z,97503.47
2022-10-25T03:47:56.735Z,97507.97
2022-10-25T03:50:23.245Z,97517.25
2022-10-25T03:52:49.669Z,97515.75
2022-10-25T03:55:16.182Z,97512.94
2022-10-25T03:57:42.573Z,97516.25
2022-10-25T04:00:09.269Z,97515.19
2022-10-25T04:02:38.822Z,97509.44
2022-10-25T04:05:05.396Z,97517.19
2022-10-25T04:07:32.126Z,97516.97
2022-10-25T04:09:58.512Z,97513.13
2022-10-25T04:12:24.849Z,97514.72
2022-10-25T04:14:51.368Z,97511.19
2022-10-25T04:17:17.733Z,97506.72
2022-10-25T04:19:44.166Z,97499.56
2022-10-25T04:22:12.039Z,97501.06
2022-10-25T04:24:38.402Z,97486.81
2022-10-25T04:27:04.785Z,97482.44
2022-10-25T04:29:31.153Z,97476.53
2022-10-25T04:31:57.497Z,97483.94
2022-10-25T04:34:23.832Z,97484.84
2022-10-25T04:36:50.234Z,97478.63
2022-10-25T04:39:16.581Z,97485.91
2022-10-25T04:41:42.989Z,97482.16
2022-10-25T04:44:09.443Z,97476.25
2022-10-25T04:46:35.842Z,97491.97
2022-10-25T04:49:02.254Z,97482.16
2022-10-25T04:51:28.590Z,97480.41
2022-10-25T04:53:55.446Z,97487.13
2022-10-25T04:56:22.124Z,97487.13
2022-10-25T04:58:48.626Z,97484.31
2022-10-25T05:01:16.150Z,97481.75
2022-10-25T05:03:42.601Z,97486.09
2022-10-25T05:06:20.283Z,97481.63
2022-10-25T05:08:48.372Z,97495.69
2022-10-25T05:11:15.630Z,97495.69
2022-10-25T05:13:43.161Z,97499.00
2022-10-25T05:16:12.222Z,97506.03
2022-10-25T05:18:38.586Z,97499.09
2022-10-25T05:21:05.929Z,97500.38
2022-10-25T05:23:33.421Z,97496.28
2022-10-25T05:26:10.476Z,97496.53
2022-10-25T05:28:37.463Z,97500.25
2022-10-25T05:31:07.700Z,97501.88
2022-10-25T05:33:34.245Z,97507.41
2022-10-25T05:36:01.152Z,97504.25
2022-10-25T05:38:27.749Z,97501.41
2022-10-25T05:43:26.592Z,97506.19
2022-10-25T05:46:00.669Z,97502.56
2022-10-25T05:48:27.059Z,97503.72
2022-10-25T05:51:03.411Z,97506.84
2022-10-25T05:53:44.406Z,97510.03
2022-10-25T05:56:11.114Z,97508.66
2022-10-25T05:58:37.725Z,97518.53
2022-10-25T06:01:04.202Z,97518.06
2022-10-25T06:03:30.685Z,97520.84
2022-10-25T06:06:00.982Z,97514.84
2022-10-25T06:08:27.538Z,97518.06
2022-10-25T06:10:53.946Z,97513.38
2022-10-25T06:13:20.444Z,97518.63
2022-10-25T06:15:46.886Z,97518.31
2022-10-25T06:18:13.248Z,97523.13
2022-10-25T06:23:11.268Z,97533.38
2022-10-25T06:25:37.719Z,97538.78
2022-10-25T06:28:04.263Z,97547.25
2022-10-25T06:33:03.092Z,97549.06
2022-10-25T06:35:29.443Z,97560.06
2022-10-25T06:38:01.967Z,97566.78
2022-10-25T06:40:28.306Z,97569.47
2022-10-25T06:42:55.786Z,97567.16
2022-10-25T06:45:22.758Z,97583.31
2022-10-25T06:47:49.317Z,97579.06
2022-10-25T06:50:15.901Z,97587.28
2022-10-25T06:52:42.265Z,97586.81
2022-10-25T06:55:08.834Z,97586.53
2022-10-25T06:57:35.237Z,97591.28
2022-10-25T07:02:32.971Z,97600.47
2022-10-25T07:04:59.429Z,97606.69
2022-10-25T07:07:25.785Z,97601.75
2022-10-25T07:09:52.124Z,97601.75
2022-10-25T07:12:18.477Z,97602.50
2022-10-25T07:14:44.863Z,97617.53
2022-10-25T07:17:11.245Z,97608.53
2022-10-25T07:19:37.633Z,97614.13
2022-10-25T07:22:04.003Z,97618.31
2022-10-25T07:24:31.093Z,97625.09
2022-10-25T07:26:57.455Z,97628.19
2022-10-25T07:29:23.813Z,97617.59
2022-10-25T07:31:50.334Z,97616.13
2022-10-25T07:34:16.945Z,97612.66
2022-10-25T07:36:44.088Z,97614.94
2022-10-25T07:39:10.669Z,97619.63
2022-10-25T07:41:37.138Z,97618.31
2022-10-25T07:44:03.692Z,97628.16
2022-10-25T07:46:30.164Z,97619.44
2022-10-25T07:48:56.739Z,97616.59
2022-10-25T07:51:23.273Z,97607.34
2022-10-25T07:53:50.680Z,97611.63
2022-10-25T07:56:22.472Z,97610.22
2022-10-25T07:58:50.159Z,97611.72
2022-10-25T08:01:22.418Z,97616.56
2022-10-25T08:03:49.404Z,97617.97
2022-10-25T08:06:16.074Z,97615.19
2022-10-25T08:08:42.561Z,97620.41
2022-10-25T08:11:09.114Z,97617.44
2022-10-25T08:13:40.856Z,97614.72
2022-10-25T08:16:07.970Z,97624.50
2022-10-25T08:18:34.926Z,97622.94
2022-10-25T08:21:03.804Z,97620.31
2022-10-25T08:23:31.611Z,97624.97
2022-10-25T08:25:58.252Z,97620.78
2022-10-25T08:28:24.800Z,97618.72
2022-10-25T08:30:53.980Z,97614.44
2022-10-25T08:33:20.502Z,97613.28
2022-10-25T08:35:46.952Z,97619.13
2022-10-25T08:38:13.437Z,97610.41
2022-10-25T08:40:39.778Z,97615.09
2022-10-25T08:43:29.886Z,97616.50
2022-10-25T08:46:25.633Z,97613.59
2022-10-25T08:49:16.185Z,97617.72
2022-10-25T08:51:44.785Z,97618.28
2022-10-25T08:54:32.865Z,97623.25
2022-10-25T08:57:16.204Z,97617.06
2022-10-25T08:59:45.244Z,97606.72
2022-10-25T09:02:18.438Z,97608.91
2022-10-25T09:04:44.984Z,97609.75
2022-10-25T09:07:19.436Z,97610.09
2022-10-25T09:09:53.668Z,97613.91
2022-10-25T09:12:35.770Z,97626.44
2022-10-25T09:15:04.831Z,97621.00
2022-10-25T09:17:36.746Z,97621.81
2022-10-25T09:20:07.377Z,97624.28
2022-10-25T09:22:45.002Z,97627.31
2022-10-25T09:25:20.824Z,97625.38
2022-10-25T09:27:52.981Z,97618.03
2022-10-25T09:30:19.366Z,97626.78
2022-10-25T09:32:47.608Z,97615.06
2022-10-25T09:35:15.877Z,97623.78
2022-10-25T09:37:47.764Z,97620.53
2022-10-25T09:40:17.883Z,97623.25
2022-10-25T09:42:53.719Z,97618.88
2022-10-25T09:45:26.417Z,97618.91
2022-10-25T09:47:52.704Z,97628.19
2022-10-25T09:50:24.975Z,97621.06
2022-10-25T09:53:12.696Z,97622.69
2022-10-25T09:55:50.705Z,97613.94
2022-10-25T09:58:21.854Z,97621.28
2022-10-25T10:00:49.376Z,97620.47
2022-10-25T10:03:15.893Z,97627.81
2022-10-25T10:05:46.597Z,97618.81
2022-10-25T10:08:12.984Z,97633.56
2022-10-25T10:10:39.952Z,97634.06
2022-10-25T10:13:18.344Z,97630.25
2022-10-25T10:15:59.204Z,97631.63
2022-10-25T10:18:25.753Z,97625.13
2022-10-25T10:20:57.019Z,97627.28
2022-10-25T10:23:23.798Z,97626.50
2022-10-25T10:25:50.258Z,97623.78
2022-10-25T10:28:17.100Z,97616.44
2022-10-25T10:30:52.341Z,97623.81
2022-10-25T10:33:18.714Z,97625.97
2022-10-25T10:35:45.047Z,97614.56
2022-10-25T10:38:25.181Z,97616.72
2022-10-25T10:40:52.854Z,97615.38
2022-10-25T10:43:31.740Z,97614.25
2022-10-25T10:46:01.133Z,97608.28
2022-10-25T10:48:31.683Z,97602.00
2022-10-25T10:50:58.030Z,97598.44
2022-10-25T10:53:32.824Z,97592.69
2022-10-25T10:56:01.421Z,97594.91
2022-10-25T10:58:32.528Z,97590.00
2022-10-25T11:01:00.196Z,97594.91
2022-10-25T11:03:42.441Z,97595.47
2022-10-25T11:06:15.508Z,97607.44
2022-10-25T11:08:43.182Z,97599.28
2022-10-25T11:11:19.989Z,97594.91
2022-10-25T11:13:59.102Z,97596.28
2022-10-25T11:16:37.876Z,97589.75
2022-10-25T11:19:19.653Z,97587.53
2022-10-25T11:22:05.706Z,97591.91
2022-10-25T11:24:50.593Z,97588.38
2022-10-25T11:27:16.908Z,97593.03
2022-10-25T11:29:52.788Z,97597.63
2022-10-25T11:32:38.919Z,97600.91
2022-10-25T11:35:16.034Z,97597.91
2022-10-25T11:37:48.042Z,97599.00
2022-10-25T11:40:20.085Z,97603.09
2022-10-25T11:42:52.692Z,97602.53
2022-10-25T11:45:39.527Z,97600.91
2022-10-25T11:48:24.761Z,97599.00
2022-10-25T11:51:14.593Z,97590.28
2022-10-25T11:53:43.897Z,97595.41
2022-10-25T11:56:10.237Z,97595.44
2022-10-25T11:58:36.561Z,97598.69
2022-10-25T12:01:21.986Z,97604.66
2022-10-25T12:04:37.974Z,97603.25
2022-10-25T12:07:09.191Z,97603.47
2022-10-25T12:09:50.257Z,97606.91
2022-10-25T12:12:21.818Z,97597.34
2022-10-25T12:14:54.230Z,97600.38
2022-10-25T12:17:27.909Z,97600.09
2022-10-25T12:19:57.213Z,97590.88
2022-10-25T12:22:28.614Z,97590.28
2022-10-25T12:25:02.365Z,97590.25
2022-10-25T12:27:29.831Z,97585.56
2022-10-25T12:30:01.974Z,97576.25
2022-10-25T12:32:41.488Z,97585.00
2022-10-25T12:35:20.698Z,97594.06
2022-10-25T12:37:55.103Z,97590.53
2022-10-25T12:40:25.962Z,97591.06
2022-10-25T12:43:13.867Z,97587.22
2022-10-25T12:46:17.327Z,97585.81
2022-10-25T12:48:49.834Z,97575.09
2022-10-25T12:51:21.625Z,97575.66
2022-10-25T12:54:00.519Z,97568.75
2022-10-25T12:56:45.698Z,97570.19
2022-10-25T12:59:17.964Z,97565.84
2022-10-25T13:01:59.650Z,97562.88
2022-10-25T13:04:57.266Z,97555.53
2022-10-25T13:07:24.473Z,97562.38
2022-10-25T13:09:51.657Z,97559.34
2022-10-25T13:12:21.853Z,97563.19
2022-10-25T13:14:54.802Z,97566.53
2022-10-25T13:17:21.173Z,97565.97
2022-10-25T13:19:54.464Z,97567.00
2022-10-25T13:22:27.750Z,97568.88
2022-10-25T13:24:55.890Z,97565.56
2022-10-25T13:27:33.666Z,97555.66
2022-10-25T13:30:02.931Z,97558.94
2022-10-25T13:32:32.184Z,97557.00
2022-10-25T13:35:03.658Z,97549.59
2022-10-25T13:37:33.033Z,97551.16
2022-10-25T13:42:47.381Z,97544.47
2022-10-25T13:45:33.651Z,97542.13
2022-10-25T13:48:17.185Z,97539.16
2022-10-25T13:50:52.012Z,97541.84
2022-10-25T13:53:18.407Z,97529.31
2022-10-25T13:55:55.462Z,97528.25
2022-10-25T13:58:32.249Z,97532.94
2022-10-25T14:01:17.201Z,97532.06
2022-10-25T14:04:13.775Z,97529.53
2022-10-25T14:06:41.659Z,97541.13
2022-10-25T14:09:34.398Z,97535.66
2022-10-25T14:12:00.765Z,97541.25
2022-10-25T14:14:33.037Z,97535.78
2022-10-25T14:17:37.529Z,97525.91
2022-10-25T14:20:10.607Z,97526.31
2022-10-25T14:22:52.927Z,97525.19
2022-10-25T14:25:33.972Z,97527.94
2022-10-25T14:28:26.124Z,97524.88
2022-10-25T14:31:00.579Z,97521.28
2022-10-25T14:33:35.445Z,97517.16
2022-10-25T14:36:09.457Z,97512.97
2022-10-25T14:38:50.074Z,97512.75
2022-10-25T14:41:21.863Z,97516.81
2022-10-25T14:43:48.366Z,97521.72
2022-10-25T14:46:17.512Z,97515.69
2022-10-25T14:48:49.213Z,97513.53
2022-10-25T14:51:24.319Z,97509.13
2022-10-25T14:53:52.828Z,97510.28
2022-10-25T14:56:26.237Z,97509.59
2022-10-25T14:58:53.787Z,97506.22
2022-10-25T15:01:22.309Z,97510.66
2022-10-25T15:03:52.380Z,97506.13
2022-10-25T15:06:22.253Z,97507.41
2022-10-25T15:08:52.225Z,97502.59
2022-10-25T15:11:21.475Z,97497.63
2022-10-25T15:13:50.317Z,97502.22
2022-10-25T15:16:38.482Z,97496.81
2022-10-25T15:19:09.088Z,97491.44
2022-10-25T15:21:47.789Z,97496.53
2022-10-25T15:24:21.305Z,97499.78
2022-10-25T15:27:06.089Z,97514.47
2022-10-25T15:29:41.455Z,97510.13
2022-10-25T15:32:28.330Z,97505.13
2022-10-25T15:34:56.958Z,97507.72
2022-10-25T15:37:24.607Z,97509.34
2022-10-25T15:39:53.414Z,97512.38
2022-10-25T15:42:22.351Z,97500.66
2022-10-25T15:44:48.937Z,97510.38
2022-10-25T15:47:34.417Z,97508.09
2022-10-25T15:50:03.738Z,97510.25
2022-10-25T15:52:30.227Z,97512.28
2022-10-25T15:54:56.692Z,97515.19
2022-10-25T15:57:23.222Z,97514.38
2022-10-25T15:59:49.654Z,97504.00
2022-10-25T16:02:26.969Z,97509.28
2022-10-25T16:04:53.790Z,97512.44
2022-10-25T16:07:20.338Z,97518.66
2022-10-25T16:09:46.773Z,97510.75
2022-10-25T16:12:21.356Z,97520.44
2022-10-25T16:14:50.949Z,97508.91
2022-10-25T16:17:17.365Z,97514.50
2022-10-25T16:19:43.848Z,97512.66
2022-10-25T16:22:10.301Z,97514.94
2022-10-25T16:24:36.737Z,97509.44
2022-10-25T16:27:03.343Z,97507.47
2022-10-25T16:29:29.846Z,97517.75
2022-10-25T16:31:56.354Z,97519.84
2022-10-25T16:34:22.908Z,97520.59
2022-10-25T16:36:50.480Z,97513.75
2022-10-25T16:39:17.006Z,97507.16
2022-10-25T16:41:45.592Z,97510.41
2022-10-25T16:44:15.516Z,97513.28
2022-10-25T16:46:42.098Z,97521.09
2022-10-25T16:49:09.424Z,97511.06
2022-10-25T16:51:36.531Z,97510.34
2022-10-25T16:54:03.190Z,97512.72
2022-10-25T16:56:29.632Z,97516.50
2022-10-25T16:58:56.146Z,97516.25
2022-10-25T17:01:28.789Z,97507.84
2022-10-25T17:03:55.427Z,97498.19
2022-10-25T17:06:40.849Z,97501.88
2022-10-25T17:09:08.136Z,97497.97
2022-10-25T17:11:34.648Z,97493.78
2022-10-25T17:14:01.104Z,97504.44
2022-10-25T17:16:27.601Z,97506.16
2022-10-25T17:18:54.033Z,97498.44
2022-10-25T17:21:20.576Z,97493.47
2022-10-25T17:23:47.072Z,97490.00
2022-10-25T17:26:13.946Z,97489.53
2022-10-25T17:28:43.887Z,97490.56
2022-10-25T17:31:13.098Z,97488.63
2022-10-25T17:33:40.582Z,97497.88
2022-10-25T17:36:13.002Z,97502.06
2022-10-25T17:38:40.234Z,97500.81
2022-10-25T17:41:07.087Z,97498.06
2022-10-25T17:43:37.550Z,97488.63
2022-10-25T17:46:06.380Z,97487.22
2022-10-25T17:48:33.263Z,97491.41
2022-10-25T17:51:03.659Z,97481.72
2022-10-25T17:53:30.315Z,97488.19
2022-10-25T17:55:56.953Z,97490.50
2022-10-25T17:58:23.822Z,97490.50
2022-10-25T18:00:50.400Z,97492.53
2022-10-25T18:03:16.913Z,97489.16
2022-10-25T18:05:43.357Z,97490.53
2022-10-25T18:08:09.791Z,97500.41
2022-10-25T18:10:36.229Z,97489.13
2022-10-25T18:13:02.661Z,97487.50
2022-10-25T18:15:29.296Z,97488.34
2022-10-25T18:17:55.761Z,97494.78
2022-10-25T18:20:25.116Z,97494.69
2022-10-25T18:22:52.990Z,97493.06
2022-10-25T18:25:19.853Z,97492.97
2022-10-25T18:27:46.797Z,97493.19
2022-10-25T18:30:13.660Z,97499.94
2022-10-25T18:32:40.123Z,97491.19
2022-10-25T18:35:06.896Z,97499.25
2022-10-25T18:37:33.346Z,97488.84
2022-10-25T18:39:59.763Z,97493.13
2022-10-25T18:42:26.219Z,97491.13
2022-10-25T18:44:55.282Z,97490.97
2022-10-25T18:47:21.740Z,97491.34
2022-10-25T18:49:48.250Z,97494.88
2022-10-25T18:52:14.694Z,97483.66
2022-10-25T18:54:41.126Z,97486.34
2022-10-25T18:57:07.673Z,97481.53
2022-10-25T18:59:34.110Z,97475.31
2022-10-25T19:02:00.740Z,97484.09
2022-10-25T19:04:27.755Z,97485.06
2022-10-25T19:06:54.250Z,97479.78
2022-10-25T19:09:20.754Z,97474.25
2022-10-25T19:11:47.698Z,97468.03
2022-10-25T19:14:14.169Z,97462.94
2022-10-25T19:16:41.883Z,97470.34
2022-10-25T19:19:08.327Z,97465.88
2022-10-25T19:21:35.700Z,97467.59
2022-10-25T19:24:02.131Z,97458.59
2022-10-25T19:26:28.586Z,97459.47
2022-10-25T19:29:00.095Z,97462.16
2022-10-25T19:31:28.016Z,97459.13
2022-10-25T19:33:56.234Z,97462.91
2022-10-25T19:36:22.726Z,97459.03
2022-10-25T19:38:49.360Z,97471.13
2022-10-25T19:41:18.094Z,97469.19
2022-10-25T19:43:45.368Z,97466.34
2022-10-25T19:46:13.129Z,97462.09
2022-10-25T19:48:40.061Z,97457.34
2022-10-25T19:51:09.358Z,97456.44
2022-10-25T19:53:35.981Z,97451.72
2022-10-25T19:56:23.150Z,97450.44
2022-10-25T19:58:50.373Z,97455.13
2022-10-25T20:01:24.524Z,97449.25
2022-10-25T20:03:54.443Z,97450.97
2022-10-25T20:06:24.842Z,97445.09
2022-10-25T20:08:52.576Z,97439.69
2022-10-25T20:11:19.550Z,97445.09
2022-10-25T20:13:46.307Z,97442.41
2022-10-25T20:16:14.053Z,97443.47
2022-10-25T20:18:42.048Z,97439.69
2022-10-25T20:21:17.082Z,97439.09
2022-10-25T20:23:49.171Z,97435.91
2022-10-25T20:26:19.276Z,97441.09
2022-10-25T20:28:46.543Z,97437.22
2022-10-25T20:31:13.794Z,97438.06
2022-10-25T20:33:40.769Z,97434.13
2022-10-25T20:36:10.846Z,97432.59
2022-10-25T20:38:38.201Z,97430.22
2022-10-25T20:41:13.936Z,97430.69
2022-10-25T20:43:41.202Z,97438.00
2022-10-25T20:46:08.338Z,97432.59
2022-10-25T20:48:35.292Z,97425.88
2022-10-25T20:51:05.316Z,97439.94
2022-10-25T20:53:35.110Z,97431.59
2022-10-25T20:56:01.805Z,97425.16
2022-10-25T20:58:28.653Z,97422.19
2022-10-25T21:00:57.449Z,97414.59
2022-10-25T21:03:25.995Z,97413.69
2022-10-25T21:05:57.430Z,97422.63
2022-10-25T21:08:24.649Z,97409.66
2022-10-25T21:10:55.214Z,97408.97
2022-10-25T21:13:22.566Z,97410.63
2022-10-25T21:15:49.540Z,97417.28
2022-10-25T21:18:16.959Z,97410.66
2022-10-25T21:20:44.475Z,97420.00
2022-10-25T21:23:11.071Z,97412.78
2022-10-25T21:25:37.914Z,97406.97
2022-10-25T21:28:04.535Z,97398.94
2022-10-25T21:30:31.210Z,97404.94
2022-10-25T21:32:57.755Z,97393.38
2022-10-25T21:35:24.497Z,97397.22
2022-10-25T21:37:51.162Z,97401.91
2022-10-25T21:40:18.663Z,97396.88
2022-10-25T21:42:45.550Z,97389.66
2022-10-25T21:45:12.009Z,97374.81
2022-10-25T21:47:38.563Z,97361.81
2022-10-25T21:50:07.106Z,97360.47
2022-10-25T21:52:33.524Z,97371.19
2022-10-25T21:55:00.014Z,97378.53
2022-10-25T21:57:26.650Z,97375.63
2022-10-25T21:59:53.098Z,97382.38
2022-10-25T22:02:19.705Z,97390.66
2022-10-25T22:04:46.290Z,97384.56
2022-10-25T22:07:12.772Z,97389.13
2022-10-25T22:09:39.240Z,97380.06
2022-10-25T22:12:06.336Z,97382.94
2022-10-25T22:14:32.767Z,97373.50
2022-10-25T22:16:59.302Z,97365.94
2022-10-25T22:19:25.778Z,97371.09
2022-10-25T22:21:52.273Z,97369.78
2022-10-25T22:24:18.966Z,97378.78
2022-10-25T22:26:46.001Z,97382.28
2022-10-25T22:29:13.878Z,97384.22
2022-10-25T22:31:40.379Z,97366.81
2022-10-25T22:34:08.801Z,97368.22
2022-10-25T22:36:38.298Z,97358.00
2022-10-25T22:39:06.239Z,97370.47
2022-10-25T22:41:33.493Z,97377.84
2022-10-25T22:44:00.784Z,97382.22
2022-10-25T22:46:30.443Z,97365.66
2022-10-25T22:48:58.574Z,97374.84
2022-10-25T22:51:27.220Z,97380.63
2022-10-25T22:53:53.976Z,97377.66
2022-10-25T22:56:31.581Z,97377.97
2022-10-25T22:59:03.750Z,97374.59
2022-10-25T23:01:33.222Z,97346.75
2022-10-25T23:04:00.420Z,97340.38
2022-10-25T23:06:29.446Z,97339.88
2022-10-25T23:08:57.876Z,97349.66
2022-10-25T23:11:30.237Z,97369.16
2022-10-25T23:13:57.727Z,97374.00
2022-10-25T23:16:24.758Z,97378.59
2022-10-25T23:18:51.657Z,97380.28
2022-10-25T23:21:23.934Z,97380.69
2022-10-25T23:23:52.108Z,97381.28
2022-10-25T23:26:26.422Z,97371.50
2022-10-25T23:28:54.369Z,97358.41
2022-10-25T23:31:21.007Z,97338.97
2022-10-25T23:33:51.186Z,97346.94
2022-10-25T23:36:22.428Z,97343.88
2022-10-25T23:38:50.757Z,97339.84
2022-10-25T23:41:18.704Z,97339.09
2022-10-25T23:43:45.317Z,97345.91
2022-10-25T23:46:12.236Z,97343.50
2022-10-25T23:48:39.516Z,97343.81
2022-10-25T23:51:17.114Z,97351.69
2022-10-25T23:53:45.470Z,97344.06
2022-10-25T23:56:13.582Z,97341.09
2022-10-25T23:58:40.510Z,97343.00
